createdAt,value
2019-03-05T00:00:32.497Z,99.99
2019-03-05T00:01:32.504Z,99.99
2019-03-05T00:02:32.725Z,99.99
2019-03-05T00:03:32.905Z,99.99
2019-03-05T00:04:32.724Z,99.99
2019-03-05T00:05:32.732Z,99.99
2019-03-05T00:06:32.517Z,99.99
2019-03-05T00:07:32.710Z,99.99
2019-03-05T00:08:32.440Z,99.99
2019-03-05T00:09:32.432Z,99.99
2019-03-05T00:10:32.710Z,99.99
2019-03-05T00:11:32.405Z,99.99
2019-03-05T00:12:32.439Z,99.99
2019-03-05T00:13:32.642Z,99.99
2019-03-05T00:14:32.379Z,99.99
2019-03-05T00:15:32.606Z,99.99
2019-03-05T00:16:32.601Z,99.99
2019-03-05T00:17:32.598Z,99.99
2019-03-05T00:18:32.606Z,99.99
2019-03-05T00:19:32.581Z,99.99
2019-03-05T00:20:32.558Z,99.99
2019-03-05T00:21:32.305Z,99.99
2019-03-05T00:22:32.542Z,99.99
2019-03-05T00:23:32.292Z,99.99
2019-03-05T00:24:32.524Z,99.99
2019-03-05T00:25:32.515Z,99.99
2019-03-05T00:26:32.514Z,99.99
2019-03-05T00:27:32.508Z,99.99
2019-03-05T00:28:32.243Z,99.99
2019-03-05T00:29:32.237Z,99.99
2019-03-05T00:30:32.220Z,99.99
2019-03-05T00:31:32.459Z,99.99
2019-03-05T00:32:32.215Z,99.99
2019-03-05T00:33:34.948Z,99.99
2019-03-05T00:34:32.185Z,99.99
2019-03-05T00:35:32.450Z,99.99
2019-03-05T00:36:32.172Z,99.99
2019-03-05T00:37:32.182Z,99.99
2019-03-05T00:38:32.420Z,99.99
2019-03-05T00:39:32.154Z,99.99
2019-03-05T00:40:32.380Z,99.99
2019-03-05T00:41:32.128Z,99.99
2019-03-05T00:42:32.371Z,99.99
2019-03-05T00:43:32.353Z,99.99
2019-03-05T00:44:32.100Z,99.99
2019-03-05T00:45:32.355Z,99.99
2019-03-05T00:46:32.328Z,99.99
2019-03-05T00:47:32.316Z,99.99
2019-03-05T00:48:32.314Z,99.99
2019-03-05T00:49:32.294Z,99.99
2019-03-05T00:50:32.046Z,99.99
2019-03-05T00:51:32.281Z,99.99
2019-03-05T00:52:32.266Z,99.99
2019-03-05T00:53:32.265Z,99.99
2019-03-05T00:54:32.253Z,99.99
2019-03-05T00:55:32.310Z,99.99
2019-03-05T00:56:32.236Z,99.99
2019-03-05T00:57:32.241Z,99.99
2019-03-05T00:58:32.219Z,99.99
2019-03-05T00:59:32.229Z,99.99
2019-03-05T01:00:31.956Z,99.99
2019-03-05T01:01:32.203Z,99.99
2019-03-05T01:02:31.931Z,99.99
2019-03-05T01:03:31.924Z,99.99
2019-03-05T01:04:31.924Z,99.99
2019-03-05T01:05:32.163Z,99.99
2019-03-05T01:06:32.168Z,99.99
2019-03-05T01:07:32.224Z,99.99
2019-03-05T01:08:32.128Z,99.99
2019-03-05T01:09:31.883Z,99.99
2019-03-05T01:10:31.868Z,99.99
2019-03-05T01:11:32.112Z,99.99
2019-03-05T01:12:32.120Z,99.99
2019-03-05T01:13:31.836Z,99.99
2019-03-05T01:14:31.832Z,99.99
2019-03-05T01:15:31.814Z,99.99
2019-03-05T01:16:31.812Z,99.99
2019-03-05T01:17:31.820Z,99.99
2019-03-05T01:18:32.047Z,99.99
2019-03-05T01:19:32.039Z,99.99
2019-03-05T01:20:32.019Z,99.99
2019-03-05T01:21:31.765Z,99.99
2019-03-05T01:22:32.027Z,99.99
2019-03-05T01:23:31.990Z,99.99
2019-03-05T01:24:31.984Z,99.99
2019-03-05T01:25:31.732Z,99.99
2019-03-05T01:26:31.986Z,99.99
2019-03-05T01:27:31.977Z,99.99
2019-03-05T01:28:31.699Z,99.99
2019-03-05T01:29:31.939Z,99.99
2019-03-05T01:30:31.940Z,99.99
2019-03-05T01:31:31.957Z,99.99
2019-03-05T01:32:31.948Z,99.99
2019-03-05T01:33:31.902Z,99.99
2019-03-05T01:34:31.911Z,99.99
2019-03-05T01:35:31.892Z,99.99
2019-03-05T01:36:31.875Z,99.99
2019-03-05T01:37:31.875Z,99.99
2019-03-05T01:38:31.609Z,99.99
2019-03-05T01:39:31.854Z,99.99
2019-03-05T01:40:31.846Z,99.99
2019-03-05T01:41:31.596Z,99.99
2019-03-05T01:42:31.572Z,99.99
2019-03-05T01:43:31.573Z,99.99
2019-03-05T01:44:32.618Z,99.99
2019-03-05T01:45:31.800Z,99.99
2019-03-05T01:46:31.544Z,99.99
2019-03-05T01:47:31.540Z,99.99
2019-03-05T01:48:31.521Z,99.99
2019-03-05T01:49:31.758Z,99.99
2019-03-05T01:50:31.752Z,99.99
2019-03-05T01:51:31.742Z,99.99
2019-03-05T01:52:31.487Z,99.99
2019-03-05T01:53:31.492Z,99.99
2019-03-05T01:54:31.463Z,99.99
2019-03-05T01:55:31.716Z,99.99
2019-03-05T01:56:31.697Z,99.99
2019-03-05T01:57:31.711Z,99.99
2019-03-05T01:58:31.676Z,99.99
2019-03-05T01:59:31.673Z,99.99
2019-03-05T02:00:31.683Z,99.99
2019-03-05T02:01:31.647Z,99.99
2019-03-05T02:02:31.641Z,99.99
2019-03-05T02:03:31.643Z,99.99
2019-03-05T02:05:45.002Z,99.99
2019-03-05T02:06:44.995Z,99.99
2019-03-05T02:07:44.966Z,99.99
2019-03-05T02:08:44.937Z,99.99
2019-03-05T02:09:44.943Z,99.99
2019-03-05T02:10:44.938Z,99.99
2019-03-05T02:11:44.941Z,99.99
2019-03-05T02:12:44.937Z,99.99
2019-03-05T02:13:44.911Z,99.99
2019-03-05T02:14:44.928Z,99.99
2019-03-05T02:15:44.887Z,99.99
2019-03-05T02:16:44.899Z,99.99
2019-03-05T02:17:44.892Z,99.99
2019-03-05T02:18:44.857Z,99.99
2019-03-05T02:19:44.878Z,99.99
2019-03-05T02:20:44.924Z,99.99
2019-03-05T02:21:44.867Z,99.99
2019-03-05T02:22:44.798Z,99.99
2019-03-05T02:23:44.840Z,99.99
2019-03-05T02:24:44.837Z,99.99
2019-03-05T02:25:44.535Z,99.99
2019-03-05T02:26:44.778Z,99.99
2019-03-05T02:27:44.766Z,99.99
2019-03-05T02:28:44.770Z,99.99
2019-03-05T02:29:44.747Z,99.99
2019-03-05T02:30:44.773Z,99.99
2019-03-05T02:31:44.742Z,99.99
2019-03-05T02:32:44.785Z,99.99
2019-03-05T02:33:44.745Z,99.99
2019-03-05T02:34:44.726Z,99.99
2019-03-05T02:35:44.763Z,99.99
2019-03-05T02:36:44.702Z,99.99
2019-03-05T02:37:44.718Z,99.99
2019-03-05T02:38:44.697Z,99.99
2019-03-05T02:39:44.698Z,99.99
2019-03-05T02:40:44.663Z,99.99
2019-03-05T02:41:44.641Z,99.99
2019-03-05T02:42:44.550Z,99.99
2019-03-05T02:43:44.379Z,99.99
2019-03-05T02:44:44.642Z,99.99
2019-03-05T02:45:44.606Z,99.99
2019-03-05T02:46:44.602Z,99.99
2019-03-05T02:47:44.623Z,99.99
2019-03-05T02:48:44.623Z,99.99
2019-03-05T02:49:44.577Z,99.99
2019-03-05T02:50:44.625Z,99.99
2019-03-05T02:51:44.391Z,99.99
2019-03-05T02:52:44.576Z,99.99
2019-03-05T02:53:44.569Z,99.99
2019-03-05T02:54:44.517Z,99.99
2019-03-05T02:55:44.549Z,99.99
2019-03-05T02:56:44.533Z,99.99
2019-03-05T02:57:44.656Z,99.99
2019-03-05T02:58:44.557Z,99.99
2019-03-05T02:59:44.521Z,99.99
2019-03-05T03:00:44.236Z,99.99
2019-03-05T03:01:44.506Z,99.99
2019-03-05T03:02:44.488Z,99.99
2019-03-05T03:03:44.467Z,99.99
2019-03-05T03:04:44.452Z,99.99
2019-03-05T03:05:44.808Z,99.99
2019-03-05T03:06:44.483Z,99.99
2019-03-05T03:07:44.429Z,99.99
2019-03-05T03:08:44.444Z,99.99
2019-03-05T03:09:44.430Z,99.99
2019-03-05T03:10:44.402Z,99.99
2019-03-05T03:11:44.403Z,99.99
2019-03-05T03:12:44.396Z,99.99
2019-03-05T03:13:44.118Z,99.99
2019-03-05T03:14:44.373Z,99.99
2019-03-05T03:15:44.410Z,99.99
2019-03-05T03:16:44.375Z,99.99
2019-03-05T03:17:44.350Z,99.99
2019-03-05T03:18:44.334Z,99.99
2019-03-05T03:19:44.371Z,99.99
2019-03-05T03:20:44.407Z,99.99
2019-03-05T03:21:44.325Z,99.99
2019-03-05T03:22:44.355Z,99.99
2019-03-05T03:23:44.295Z,99.99
2019-03-05T03:24:44.304Z,99.99
2019-03-05T03:25:44.283Z,99.99
2019-03-05T03:26:44.221Z,99.99
2019-03-05T03:27:44.255Z,99.99
2019-03-05T03:28:44.298Z,99.99
2019-03-05T03:29:44.299Z,99.99
2019-03-05T03:30:44.232Z,99.99
2019-03-05T03:31:43.978Z,99.99
2019-03-05T03:32:43.985Z,99.99
2019-03-05T03:33:44.258Z,99.99
2019-03-05T03:34:44.445Z,99.99
2019-03-05T03:35:44.240Z,99.99
2019-03-05T03:36:44.172Z,99.99
2019-03-05T03:37:44.194Z,99.99
2019-03-05T03:38:44.170Z,99.99
2019-03-05T03:39:44.162Z,99.99
2019-03-05T03:40:44.160Z,99.99
2019-03-05T03:41:44.180Z,99.99
2019-03-05T03:42:44.178Z,99.99
2019-03-05T03:43:43.857Z,99.99
2019-03-05T03:44:44.118Z,99.99
2019-03-05T03:45:43.843Z,99.99
2019-03-05T03:46:44.090Z,99.99
2019-03-05T03:47:44.104Z,99.99
2019-03-05T03:48:44.071Z,99.99
2019-03-05T03:49:44.097Z,99.99
2019-03-05T03:50:44.062Z,99.99
2019-03-05T03:51:44.081Z,99.99
2019-03-05T03:52:44.083Z,99.99
2019-03-05T03:53:44.050Z,99.99
2019-03-05T03:54:44.074Z,99.99
2019-03-05T03:55:44.052Z,99.99
2019-03-05T03:56:44.047Z,99.99
2019-03-05T03:57:43.988Z,99.99
2019-03-05T03:58:43.998Z,99.99
2019-03-05T03:59:43.991Z,99.99
2019-03-05T04:00:44.026Z,99.99
2019-03-05T04:01:43.731Z,99.99
2019-03-05T04:02:43.958Z,99.99
2019-03-05T04:03:43.971Z,99.99
2019-03-05T04:04:43.957Z,99.99
2019-03-05T04:05:43.947Z,99.99
2019-03-05T04:06:43.931Z,99.99
2019-03-05T04:07:43.927Z,99.99
2019-03-05T04:08:43.934Z,99.99
2019-03-05T04:09:43.904Z,99.99
2019-03-05T04:10:43.876Z,99.99
2019-03-05T04:11:43.921Z,99.99
2019-03-05T04:12:43.878Z,99.99
2019-03-05T04:13:43.922Z,99.99
2019-03-05T04:14:43.638Z,99.99
2019-03-05T04:15:43.867Z,99.99
2019-03-05T04:16:43.875Z,99.99
2019-03-05T04:17:43.831Z,99.99
2019-03-05T04:18:43.847Z,99.99
2019-03-05T04:19:43.859Z,99.99
2019-03-05T04:20:43.794Z,99.99
2019-03-05T04:21:43.823Z,99.99
2019-03-05T04:22:43.585Z,99.99
2019-03-05T04:23:43.763Z,99.99
2019-03-05T04:24:43.763Z,99.99
2019-03-05T04:25:43.768Z,99.99
2019-03-05T04:26:43.446Z,99.99
2019-03-05T04:27:43.736Z,99.99
2019-03-05T04:28:43.740Z,99.99
2019-03-05T04:29:43.712Z,99.99
2019-03-05T04:30:43.744Z,99.99
2019-03-05T04:31:43.600Z,99.99
2019-03-05T04:32:43.574Z,99.99
2019-03-05T04:33:43.574Z,99.99
2019-03-05T04:34:43.559Z,99.99
2019-03-05T04:35:43.548Z,99.99
2019-03-05T04:36:43.549Z,99.99
2019-03-05T04:37:43.287Z,99.99
2019-03-05T04:38:43.533Z,99.99
2019-03-05T04:39:43.265Z,99.99
2019-03-05T04:40:43.504Z,99.99
2019-03-05T04:41:43.494Z,99.99
2019-03-05T04:42:43.485Z,99.99
2019-03-05T04:43:43.484Z,99.99
2019-03-05T04:44:43.489Z,99.99
2019-03-05T04:45:43.210Z,99.99
2019-03-05T04:46:43.448Z,99.99
2019-03-05T04:47:43.440Z,99.99
2019-03-05T04:48:43.433Z,99.99
2019-03-05T04:49:43.423Z,99.99
2019-03-05T04:50:43.419Z,99.99
2019-03-05T04:51:43.415Z,99.99
2019-03-05T04:52:43.403Z,99.99
2019-03-05T04:53:43.392Z,99.99
2019-03-05T04:54:43.380Z,99.99
2019-03-05T04:55:43.122Z,99.99
2019-03-05T04:56:43.358Z,99.99
2019-03-05T04:57:43.358Z,99.99
2019-03-05T04:58:43.093Z,99.99
2019-03-05T04:59:43.333Z,99.99
2019-03-05T05:00:43.323Z,99.99
2019-03-05T05:01:43.067Z,99.99
2019-03-05T05:02:43.054Z,99.99
2019-03-05T05:03:43.049Z,99.99
2019-03-05T05:04:43.288Z,99.99
2019-03-05T05:05:43.300Z,99.99
2019-03-05T05:06:43.262Z,99.99
2019-03-05T05:07:43.258Z,99.99
2019-03-05T05:08:43.253Z,99.99
2019-03-05T05:09:43.243Z,99.99
2019-03-05T05:10:43.232Z,99.99
2019-03-05T05:11:42.978Z,99.99
2019-03-05T05:12:42.985Z,99.99
2019-03-05T05:13:43.213Z,99.99
2019-03-05T05:14:43.194Z,99.99
2019-03-05T05:15:43.187Z,99.99
2019-03-05T05:16:43.193Z,99.99
2019-03-05T05:17:43.193Z,99.99
2019-03-05T05:18:42.914Z,99.99
2019-03-05T05:19:43.169Z,99.99
2019-03-05T05:20:43.139Z,99.99
2019-03-05T05:21:43.128Z,99.99
2019-03-05T05:22:43.118Z,99.99
2019-03-05T05:23:43.120Z,99.99
2019-03-05T05:24:43.109Z,99.99
2019-03-05T05:25:43.093Z,99.99
2019-03-05T05:26:43.132Z,99.99
2019-03-05T05:27:42.831Z,99.99
2019-03-05T05:28:43.066Z,99.99
2019-03-05T05:29:42.807Z,99.99
2019-03-05T05:30:43.093Z,99.99
2019-03-05T05:31:43.049Z,99.99
2019-03-05T05:32:42.773Z,99.99
2019-03-05T05:33:43.011Z,99.99
2019-03-05T05:34:43.006Z,99.99
2019-03-05T05:35:42.752Z,99.99
2019-03-05T05:36:42.994Z,99.99
2019-03-05T05:37:42.977Z,99.99
2019-03-05T05:38:42.962Z,99.99
2019-03-05T05:39:42.986Z,99.99
2019-03-05T05:40:42.945Z,99.99
2019-03-05T05:41:42.687Z,99.99
2019-03-05T05:42:42.933Z,99.99
2019-03-05T05:43:42.915Z,99.99
2019-03-05T05:44:42.908Z,99.99
2019-03-05T05:45:42.905Z,99.99
2019-03-05T05:46:42.905Z,99.99
2019-03-05T05:47:42.877Z,99.99
2019-03-05T05:48:42.639Z,99.99
2019-03-05T05:49:42.860Z,99.99
2019-03-05T05:50:42.600Z,99.99
2019-03-05T05:51:44.370Z,99.99
2019-03-05T05:52:42.583Z,99.99
2019-03-05T05:53:42.821Z,99.99
2019-03-05T05:54:42.813Z,99.99
2019-03-05T05:55:42.801Z,99.99
2019-03-05T05:56:42.543Z,99.99
2019-03-05T05:57:42.784Z,99.99
2019-03-05T05:58:42.775Z,99.99
2019-03-05T05:59:42.762Z,99.99
2019-03-05T06:00:42.755Z,99.99
2019-03-05T06:01:42.754Z,99.99
2019-03-05T06:02:42.496Z,99.99
2019-03-05T06:03:42.735Z,99.99
2019-03-05T06:04:42.717Z,99.99
2019-03-05T06:05:42.761Z,99.99
2019-03-05T06:06:42.448Z,99.99
2019-03-05T06:07:43.790Z,99.99
2019-03-05T06:08:42.430Z,99.99
2019-03-05T06:09:42.701Z,99.99
2019-03-05T06:10:42.425Z,99.99
2019-03-05T06:11:42.414Z,99.99
2019-03-05T06:12:42.393Z,99.99
2019-03-05T06:13:42.643Z,99.99
2019-03-05T06:14:42.628Z,99.99
2019-03-05T06:15:42.613Z,99.99
2019-03-05T06:16:42.601Z,99.99
2019-03-05T06:17:42.344Z,99.99
2019-03-05T06:18:42.589Z,99.99
2019-03-05T06:19:42.582Z,99.99
2019-03-05T06:20:45.050Z,99.99
2019-03-05T06:21:42.310Z,99.99
2019-03-05T06:22:42.547Z,99.99
2019-03-05T06:23:42.542Z,99.99
2019-03-05T06:24:42.285Z,99.99
2019-03-05T06:25:42.525Z,99.99
2019-03-05T06:26:42.277Z,99.99
2019-03-05T06:27:42.252Z,99.99
2019-03-05T06:28:42.493Z,99.99
2019-03-05T06:29:42.493Z,99.99
2019-03-05T06:30:42.472Z,99.99
2019-03-05T06:31:42.463Z,99.99
2019-03-05T06:32:42.226Z,99.99
2019-03-05T06:33:42.199Z,99.99
2019-03-05T06:34:42.201Z,99.99
2019-03-05T06:35:42.194Z,99.99
2019-03-05T06:36:42.428Z,99.99
2019-03-05T06:37:42.665Z,99.99
2019-03-05T06:38:42.154Z,99.99
2019-03-05T06:39:42.398Z,99.99
2019-03-05T06:40:42.397Z,99.99
2019-03-05T06:41:42.385Z,99.99
2019-03-05T06:42:42.366Z,99.99
2019-03-05T06:43:42.111Z,99.99
2019-03-05T06:44:42.350Z,99.99
2019-03-05T06:45:42.336Z,99.99
2019-03-05T06:46:42.334Z,99.99
2019-03-05T06:47:42.331Z,99.99
2019-03-05T06:48:42.334Z,99.99
2019-03-05T06:49:42.320Z,99.99
2019-03-05T06:50:42.334Z,99.99
2019-03-05T06:51:42.293Z,99.99
2019-03-05T06:52:42.289Z,99.99
2019-03-05T06:53:42.279Z,99.99
2019-03-05T06:54:42.277Z,99.99
2019-03-05T06:55:42.008Z,99.99
2019-03-05T06:56:42.004Z,99.99
2019-03-05T06:57:42.001Z,99.99
2019-03-05T06:58:42.242Z,99.99
2019-03-05T06:59:42.224Z,99.99
2019-03-05T07:00:42.278Z,99.97
2019-03-05T07:01:41.958Z,99.99
2019-03-05T07:02:42.195Z,99.21
2019-03-05T07:03:42.215Z,98.92
2019-03-05T07:04:42.186Z,98.92
2019-03-05T07:05:41.930Z,98.35
2019-03-05T07:06:41.922Z,99.21
2019-03-05T07:07:42.158Z,99.21
2019-03-05T07:08:42.148Z,99.02
2019-03-05T07:09:42.144Z,98.92
2019-03-05T07:10:41.892Z,98.64
2019-03-05T07:11:41.883Z,98.83
2019-03-05T07:12:42.118Z,98.54
2019-03-05T07:13:42.117Z,98.83
2019-03-05T07:14:41.856Z,97.69
2019-03-05T07:15:42.100Z,98.07
2019-03-05T07:16:41.856Z,96.64
2019-03-05T07:17:41.860Z,95.89
2019-03-05T07:18:42.093Z,96.55
2019-03-05T07:19:42.072Z,97.5
2019-03-05T07:20:42.065Z,98.35
2019-03-05T07:21:41.831Z,99.02
2019-03-05T07:22:42.048Z,98.73
2019-03-05T07:23:43.116Z,98.54
2019-03-05T07:24:42.048Z,98.54
2019-03-05T07:25:42.024Z,98.54
2019-03-05T07:26:42.037Z,98.73
2019-03-05T07:27:42.013Z,98.79
2019-03-05T07:28:42.001Z,99.02
2019-03-05T07:29:41.763Z,99.26
2019-03-05T07:30:41.997Z,98.97
2019-03-05T07:31:41.977Z,98.31
2019-03-05T07:32:41.732Z,98.31
2019-03-05T07:33:41.720Z,98.31
2019-03-05T07:34:41.815Z,97.83
2019-03-05T07:35:41.949Z,97.5
2019-03-05T07:36:41.943Z,96.84
2019-03-05T07:37:41.694Z,95.98
2019-03-05T07:38:41.939Z,94.84
2019-03-05T07:39:41.693Z,94.46
2019-03-05T07:40:41.922Z,91.94
2019-03-05T07:41:41.912Z,91.47
2019-03-05T07:42:41.911Z,91.28
2019-03-05T07:43:41.900Z,90.61
2019-03-05T07:44:41.903Z,90.04
2019-03-05T07:45:41.894Z,89
2019-03-05T07:46:41.628Z,87.47
2019-03-05T07:47:41.878Z,87.76
2019-03-05T07:48:41.618Z,88.61
2019-03-05T07:49:46.484Z,89.85
2019-03-05T07:50:41.859Z,90.7
2019-03-05T07:51:41.607Z,89.85
2019-03-05T07:52:41.858Z,88.33
2019-03-05T07:53:41.588Z,88.42
2019-03-05T07:54:41.838Z,88.23
2019-03-05T07:55:41.826Z,87.66
2019-03-05T07:56:41.837Z,88.23
2019-03-05T07:57:41.807Z,88.33
2019-03-05T07:58:41.833Z,85.76
2019-03-05T07:59:41.805Z,83.1
2019-03-05T08:00:41.792Z,83.72
2019-03-05T08:01:41.542Z,84.58
2019-03-05T08:02:41.791Z,84.33
2019-03-05T08:03:41.796Z,84.05
2019-03-05T08:04:41.788Z,85.05
2019-03-05T08:05:41.756Z,83.58
2019-03-05T08:06:41.750Z,83.48
2019-03-05T08:07:41.496Z,82.81
2019-03-05T08:08:41.738Z,83.1
2019-03-05T08:09:41.492Z,84.24
2019-03-05T08:10:41.726Z,83.86
2019-03-05T08:11:41.728Z,83.86
2019-03-05T08:12:41.729Z,84.62
2019-03-05T08:13:41.720Z,84.72
2019-03-05T08:14:41.732Z,84.05
2019-03-05T08:15:41.699Z,82.09
2019-03-05T08:16:41.700Z,79.09
2019-03-05T08:17:41.434Z,76.27
2019-03-05T08:18:41.691Z,74.21
2019-03-05T08:19:41.447Z,73.07
2019-03-05T08:20:41.667Z,71.17
2019-03-05T08:21:41.694Z,70.97
2019-03-05T08:22:41.661Z,72.56
2019-03-05T08:23:41.668Z,73.13
2019-03-05T08:24:41.410Z,73.61
2019-03-05T08:25:41.410Z,74.37
2019-03-05T08:26:41.646Z,74.18
2019-03-05T08:27:41.654Z,74.08
2019-03-05T08:28:41.674Z,74.14
2019-03-05T08:29:41.635Z,75.19
2019-03-05T08:30:41.382Z,75.47
2019-03-05T08:31:41.634Z,76.71
2019-03-05T08:32:41.622Z,76.52
2019-03-05T08:33:41.632Z,76.71
2019-03-05T08:34:41.630Z,76.52
2019-03-05T08:35:41.611Z,75.47
2019-03-05T08:36:41.367Z,76.42
2019-03-05T08:37:41.606Z,74.94
2019-03-05T08:38:41.356Z,74.56
2019-03-05T08:39:41.358Z,74.37
2019-03-05T08:40:41.344Z,74.27
2019-03-05T08:41:41.353Z,73.7
2019-03-05T08:42:41.582Z,73.65
2019-03-05T08:43:41.584Z,72.5
2019-03-05T08:44:52.364Z,73.22
2019-03-05T08:45:41.584Z,73.13
2019-03-05T08:46:41.319Z,71.36
2019-03-05T08:47:41.563Z,70.94
2019-03-05T08:48:41.572Z,71.42
2019-03-05T08:49:41.322Z,71.32
2019-03-05T08:50:41.324Z,71.42
2019-03-05T08:51:41.390Z,70.65
2019-03-05T08:52:41.542Z,71.22
2019-03-05T08:53:51.907Z,71.61
2019-03-05T08:54:41.541Z,71.22
2019-03-05T08:55:41.554Z,71.13
2019-03-05T08:56:41.533Z,71.22
2019-03-05T08:57:41.276Z,71.42
2019-03-05T08:58:41.274Z,71.7
2019-03-05T08:59:41.275Z,72.65
2019-03-05T09:00:41.517Z,71.98
2019-03-05T09:01:41.521Z,71.98
2019-03-05T09:02:50.630Z,71.89
2019-03-05T09:03:41.537Z,72.9
2019-03-05T09:04:41.247Z,72.05
2019-03-05T09:05:41.490Z,72.9
2019-03-05T09:06:41.242Z,74.33
2019-03-05T09:07:41.474Z,72.52
2019-03-05T09:08:41.639Z,71.38
2019-03-05T09:09:41.467Z,71.67
2019-03-05T09:10:41.473Z,72.42
2019-03-05T09:11:41.469Z,72.71
2019-03-05T09:12:41.277Z,71.67
2019-03-05T09:13:41.238Z,71.13
2019-03-05T09:14:41.195Z,70.65
2019-03-05T09:15:41.198Z,70.84
2019-03-05T09:16:41.433Z,71.42
2019-03-05T09:17:41.428Z,71.7
2019-03-05T09:18:41.427Z,70.75
2019-03-05T09:19:41.416Z,69.6
2019-03-05T09:20:41.415Z,69.32
2019-03-05T09:21:41.173Z,67.83
2019-03-05T09:22:41.163Z,66.97
2019-03-05T09:23:41.413Z,67.64
2019-03-05T09:24:41.396Z,67.99
2019-03-05T09:25:41.150Z,68.27
2019-03-05T09:26:50.653Z,67.8
2019-03-05T09:27:41.133Z,67.8
2019-03-05T09:28:41.143Z,67.35
2019-03-05T09:29:41.376Z,66.56
2019-03-05T09:30:41.372Z,67.13
2019-03-05T09:31:41.396Z,65.32
2019-03-05T09:32:41.118Z,65.03
2019-03-05T09:33:41.109Z,65.61
2019-03-05T09:34:41.350Z,65.03
2019-03-05T09:35:41.106Z,65.13
2019-03-05T09:36:52.703Z,63.6
2019-03-05T09:37:41.350Z,64.28
2019-03-05T09:38:45.845Z,64.08
2019-03-05T09:39:41.324Z,64.37
2019-03-05T09:40:41.076Z,64.21
2019-03-05T09:41:41.074Z,64.02
2019-03-05T09:42:42.399Z,63.83
2019-03-05T09:43:41.328Z,63.17
2019-03-05T09:44:41.306Z,63.54
2019-03-05T09:45:41.294Z,62.49
2019-03-05T09:46:41.305Z,61.64
2019-03-05T09:47:41.046Z,62.49
2019-03-05T09:48:41.047Z,62.12
2019-03-05T09:49:41.281Z,62.4
2019-03-05T09:50:41.280Z,61.93
2019-03-05T09:51:41.273Z,62.3
2019-03-05T09:52:41.038Z,63.04
2019-03-05T09:53:41.283Z,61.8
2019-03-05T09:54:41.266Z,64.18
2019-03-05T09:55:41.257Z,64.56
2019-03-05T09:56:41.029Z,64.21
2019-03-05T09:57:41.250Z,62.3
2019-03-05T09:58:41.279Z,62.49
2019-03-05T09:59:40.992Z,62.59
2019-03-05T10:00:41.250Z,61.86
2019-03-05T10:01:40.986Z,60.52
2019-03-05T10:02:40.988Z,59.86
2019-03-05T10:03:41.218Z,59.51
2019-03-05T10:04:41.226Z,58.94
2019-03-05T10:05:40.997Z,58.65
2019-03-05T10:06:40.967Z,58.75
2019-03-05T10:07:41.224Z,58.65
2019-03-05T10:08:41.210Z,57.41
2019-03-05T10:09:40.952Z,56.58
2019-03-05T10:10:41.209Z,56.58
2019-03-05T10:11:41.200Z,56.48
2019-03-05T10:12:40.944Z,56.2
2019-03-05T10:13:41.192Z,56.87
2019-03-05T10:14:40.932Z,58.26
2019-03-05T10:15:41.174Z,57.31
2019-03-05T10:16:41.181Z,56.36
2019-03-05T10:17:40.923Z,55.6
2019-03-05T10:18:41.576Z,55.41
2019-03-05T10:19:41.172Z,55.69
2019-03-05T10:20:41.174Z,56.55
2019-03-05T10:21:48.649Z,56.26
2019-03-05T10:22:41.155Z,56.46
2019-03-05T10:23:40.908Z,57.03
2019-03-05T10:24:40.904Z,56.36
2019-03-05T10:25:40.900Z,55.02
2019-03-05T10:26:40.898Z,54.83
2019-03-05T10:27:40.891Z,55.6
2019-03-05T10:28:41.131Z,55.41
2019-03-05T10:29:41.130Z,55.5
2019-03-05T10:30:41.138Z,54.83
2019-03-05T10:31:41.125Z,54.17
2019-03-05T10:32:41.133Z,54.55
2019-03-05T10:33:40.911Z,54.17
2019-03-05T10:34:41.146Z,53.41
2019-03-05T10:35:41.124Z,52.92
2019-03-05T10:36:41.156Z,53.59
2019-03-05T10:37:40.872Z,53.5
2019-03-05T10:38:41.109Z,54.36
2019-03-05T10:39:41.109Z,54.74
2019-03-05T10:40:41.094Z,54.07
2019-03-05T10:41:42.890Z,53.97
2019-03-05T10:42:43.653Z,54.17
2019-03-05T10:43:40.834Z,54.17
2019-03-05T10:44:41.078Z,54.93
2019-03-05T10:45:41.079Z,55.69
2019-03-05T10:46:41.084Z,55.02
2019-03-05T10:47:41.072Z,54.74
2019-03-05T10:48:41.064Z,55.02
2019-03-05T10:49:41.065Z,54.17
2019-03-05T10:50:41.102Z,54.45
2019-03-05T10:51:41.066Z,54.55
2019-03-05T10:52:40.799Z,54.93
2019-03-05T10:53:41.072Z,55.12
2019-03-05T10:54:41.054Z,55.21
2019-03-05T10:55:40.821Z,54.74
2019-03-05T10:56:41.045Z,55.02
2019-03-05T10:57:40.800Z,54.93
2019-03-05T10:58:41.042Z,55.41
2019-03-05T10:59:41.026Z,54.83
2019-03-05T11:00:41.031Z,54.07
2019-03-05T11:01:41.018Z,53.88
2019-03-05T11:02:41.011Z,54.64
2019-03-05T11:03:41.019Z,55.41
2019-03-05T11:04:48.292Z,54.45
2019-03-05T11:05:40.770Z,54.96
2019-03-05T11:06:41.008Z,54
2019-03-05T11:07:41.008Z,54.17
2019-03-05T11:08:40.997Z,54.64
2019-03-05T11:09:40.993Z,54
2019-03-05T11:10:43.538Z,54.86
2019-03-05T11:11:41.001Z,54.48
2019-03-05T11:12:40.731Z,54.67
2019-03-05T11:13:40.984Z,54.48
2019-03-05T11:14:40.979Z,54.19
2019-03-05T11:15:40.976Z,54.19
2019-03-05T11:16:40.970Z,54.29
2019-03-05T11:17:40.977Z,53.81
2019-03-05T11:18:40.971Z,53.81
2019-03-05T11:19:40.990Z,53.81
2019-03-05T11:20:40.957Z,53.91
2019-03-05T11:21:40.710Z,54.29
2019-03-05T11:22:40.967Z,54
2019-03-05T11:23:40.960Z,54.1
2019-03-05T11:24:40.950Z,53.43
2019-03-05T11:25:40.948Z,53.81
2019-03-05T11:26:40.941Z,54.38
2019-03-05T11:27:40.946Z,54.1
2019-03-05T11:28:40.939Z,54
2019-03-05T11:29:40.687Z,54
2019-03-05T11:30:40.932Z,54.48
2019-03-05T11:31:40.928Z,55.15
2019-03-05T11:32:40.921Z,55.72
2019-03-05T11:33:40.929Z,54.96
2019-03-05T11:34:40.924Z,54.57
2019-03-05T11:35:41.470Z,54.96
2019-03-05T11:36:40.926Z,54.48
2019-03-05T11:37:40.911Z,54.29
2019-03-05T11:38:40.909Z,54.48
2019-03-05T11:39:42.816Z,53.91
2019-03-05T11:40:40.906Z,53.91
2019-03-05T11:41:40.901Z,53.43
2019-03-05T11:42:40.656Z,54.19
2019-03-05T11:43:41.228Z,55.24
2019-03-05T11:44:40.895Z,55.72
2019-03-05T11:45:40.892Z,55.72
2019-03-05T11:46:40.651Z,55.72
2019-03-05T11:47:40.645Z,56.2
2019-03-05T11:48:40.876Z,55.82
2019-03-05T11:49:40.904Z,57.24
2019-03-05T11:50:40.879Z,55.53
2019-03-05T11:51:40.873Z,55.62
2019-03-05T11:52:40.900Z,55.72
2019-03-05T11:53:40.871Z,55.43
2019-03-05T11:54:40.868Z,56.67
2019-03-05T11:55:40.866Z,56.58
2019-03-05T11:56:40.869Z,56.67
2019-03-05T11:57:40.619Z,56.29
2019-03-05T11:58:40.855Z,56.67
2019-03-05T11:59:40.610Z,57.92
2019-03-05T12:00:40.849Z,58.2
2019-03-05T12:01:40.854Z,56.67
2019-03-05T12:02:40.848Z,56.77
2019-03-05T12:03:40.842Z,57.34
2019-03-05T12:04:40.839Z,58.58
2019-03-05T12:05:40.841Z,58.39
2019-03-05T12:06:40.842Z,58.68
2019-03-05T12:07:40.589Z,57.92
2019-03-05T12:08:40.826Z,58.29
2019-03-05T12:09:40.826Z,58.65
2019-03-05T12:10:40.820Z,58.48
2019-03-05T12:11:40.825Z,57.82
2019-03-05T12:12:40.822Z,58.29
2019-03-05T12:13:40.821Z,57.53
2019-03-05T12:14:40.827Z,57.79
2019-03-05T12:15:40.818Z,57.79
2019-03-05T12:16:41.651Z,58.07
2019-03-05T12:17:40.796Z,58.65
2019-03-05T12:18:40.802Z,58.75
2019-03-05T12:19:40.542Z,58.94
2019-03-05T12:20:40.798Z,58.17
2019-03-05T12:21:40.534Z,58.65
2019-03-05T12:22:40.544Z,59.12
2019-03-05T12:23:46.629Z,59.22
2019-03-05T12:24:40.786Z,59.51
2019-03-05T12:25:42.426Z,59.7
2019-03-05T12:26:40.765Z,58.75
2019-03-05T12:27:40.766Z,59.51
2019-03-05T12:28:42.319Z,59.31
2019-03-05T12:29:40.522Z,59.41
2019-03-05T12:30:40.761Z,58.65
2019-03-05T12:31:40.751Z,59.41
2019-03-05T12:32:40.748Z,59.22
2019-03-05T12:33:40.746Z,59.89
2019-03-05T12:34:40.498Z,59.79
2019-03-05T12:35:40.738Z,59.7
2019-03-05T12:36:40.739Z,59.6
2019-03-05T12:37:40.731Z,59.63
2019-03-05T12:38:40.730Z,59.25
2019-03-05T12:39:40.737Z,59.44
2019-03-05T12:40:40.728Z,59.82
2019-03-05T12:41:40.730Z,60.08
2019-03-05T12:42:40.463Z,59.6
2019-03-05T12:43:40.462Z,59.89
2019-03-05T12:44:40.712Z,59.89
2019-03-05T12:45:40.711Z,60.46
2019-03-05T12:46:40.705Z,60.84
2019-03-05T12:47:40.708Z,60.46
2019-03-05T12:48:42.866Z,60.84
2019-03-05T12:49:40.722Z,61.22
2019-03-05T12:50:40.692Z,61.19
2019-03-05T12:51:40.454Z,61.32
2019-03-05T12:52:40.449Z,61.7
2019-03-05T12:53:40.700Z,60.94
2019-03-05T12:54:40.691Z,61.32
2019-03-05T12:55:40.684Z,61.22